Latest Weather Observations for Derby

IDW60801

Issued at 7:33 pm WST Wednesday 24 May 2017 (issued every 30 minutes, with the page automatically refreshed every 10 minutes)

About weather observations | Map of weather stations | Latest weather observations for WA | Other Formats
Station Details ID: 003032 Name: DERBY AERO Lat: -17.37 Lon: 123.66 Height: 6.2 m
Data from the previous 72 hours. | See also: Recent months at Derby
Date/Time
WST
Temp
°C
App
Temp
°C
Dew
Point
°C
Rel
Hum
%
Delta-T
°C
Wind Press
QNH
hPa
Press
MSL
hPa
Rain since
9am
mm
Dir  Spd
km/h
Gust
km/h
Spd
kts
Gust
kts
24/07:30pm 25.5 28.2 17.7 62 4.9 CALM 0 0 0 0 1012.9 1012.9 0.0
24/07:00pm 26.4 29.1 17.7 58 5.5 CALM 0 0 0 0 1012.6 1012.6 0.0
24/06:30pm 27.5 28.9 17.4 54 6.3 NNW 6 7 3 4 1012.3 1012.3 0.0
24/06:00pm 28.4 29.7 17.0 50 7.1 NNW 6 7 3 4 1012.0 1012.0 0.0
24/05:30pm 29.3 30.2 16.5 46 8.0 WNW 7 11 4 6 1011.6 1011.6 0.0
24/05:00pm 30.9 30.5 16.1 41 9.2 WNW 13 17 7 9 1011.1 1011.1 0.0
24/04:30pm 32.5 31.6 15.9 36 10.4 WNW 15 17 8 9 1010.8 1010.8 0.0
24/04:00pm 33.5 31.9 15.0 32 11.5 NW 17 20 9 11 1010.5 1010.5 0.0
24/03:30pm 34.1 32.7 15.5 32 11.6 NW 17 22 9 12 1010.4 1010.4 0.0
24/03:00pm 34.5 32.9 15.9 33 11.7 NW 19 24 10 13 1010.4 1010.4 0.0
24/02:30pm 34.7 33.3 16.5 33 11.6 WNW 19 24 10 13 1010.4 1010.4 0.0
24/02:00pm 35.4 34.6 17.1 33 11.8 WNW 17 24 9 13 1010.6 1010.6 0.0
24/01:30pm 34.6 34.3 16.4 33 11.5 NNW 13 19 7 10 1010.9 1010.9 0.0
24/01:00pm 34.8 33.3 14.1 28 12.7 N 15 20 8 11 1011.3 1011.3 0.0
24/12:30pm 35.5 35.5 15.3 30 12.7 N 9 19 5 10 1011.7 1011.7 0.0
24/12:00pm 34.7 35.0 16.1 33 11.8 NNE 9 17 5 9 1012.2 1012.2 0.0
24/11:30am 34.3 35.6 17.1 36 11.0 N 6 9 3 5 1012.5 1012.5 0.0
24/11:00am 33.3 34.0 17.1 38 10.3 ENE 9 17 5 9 1013.0 1013.0 0.0
24/10:30am 32.2 32.8 16.9 40 9.7 E 9 15 5 8 1013.5 1013.5 0.0
24/10:00am 31.4 31.9 16.6 41 9.3 ESE 9 15 5 8 1013.9 1013.9 0.0
24/09:30am 30.3 30.2 16.0 42 8.9 ESE 11 15 6 8 1014.2 1014.2 0.0
24/09:00am 29.3 29.6 16.1 44 8.2 ESE 9 15 5 8 1014.3 1014.3 0.0
24/08:30am 27.5 28.8 16.1 49 7.0 ESE 4 9 2 5 1014.3 1014.3 0.0
24/08:00am 25.8 26.7 16.1 55 5.9 SE 6 7 3 4 1014.1 1014.1 0.0
24/07:30am 23.0 23.3 16.1 65 4.2 SSE 9 11 5 6 1013.7 1013.7 0.0
24/07:00am 21.4 22.8 16.4 73 3.0 S 4 7 2 4 1013.6 1013.6 0.0
24/06:30am 19.3 21.3 16.0 81 2.0 CALM 0 0 0 0 1013.4 1013.4 0.0
24/06:00am 19.0 20.8 15.5 80 2.1 CALM 0 0 0 0 1013.1 1013.1 0.0
24/05:30am 19.4 21.1 15.3 77 2.4 CALM 0 0 0 0 1012.7 1012.7 0.0
24/05:00am 19.1 20.7 15.0 77 2.4 CALM 0 0 0 0 1012.5 1012.5 0.0
24/04:30am 19.9 21.8 15.7 77 2.5 CALM 0 4 0 2 1012.2 1012.2 0.0
24/04:00am 20.2 21.3 15.6 75 2.7 NNE 4 7 2 4 1012.0 1012.0 0.0
24/03:30am 20.2 20.8 15.4 74 2.8 NNE 6 9 3 5 1012.1 1012.1 0.0
24/03:00am 20.7 19.8 14.8 69 3.5 S 13 17 7 9 1011.9 1011.9 0.0
24/02:30am 20.9 22.6 15.2 70 3.4 CALM 0 0 0 0 1012.1 1012.1 0.0
24/02:00am 20.9 22.0 14.5 67 3.7 S 2 6 1 3 1012.2 1012.2 0.0
24/01:30am 21.2 21.5 14.4 65 4.0 S 6 7 3 4 1012.4 1012.4 0.0
24/01:00am 21.8 22.4 15.9 69 3.5 SSE 7 9 4 5 1012.5 1012.5 0.0
24/12:30am 22.6 23.1 16.6 69 3.7 SSE 9 11 5 6 1012.7 1012.7 0.0
24/12:00am 22.2 23.1 16.7 71 3.4 SSE 7 9 4 5 1013.0 1013.0 0.0
 
Date/Time
WST
Temp
°C
App
Temp
°C
Dew
Point
°C
Rel
Hum
%
Delta-T
°C
Wind Press
QNH
hPa
Press
MSL
hPa
Rain since
9am
mm
Dir  Spd
km/h
Gust
km/h
Spd
kts
Gust
kts
23/11:30pm 22.0 22.8 16.3 70 3.4 SSW 7 7 4 4 1013.3 1013.3 0.0
23/11:00pm 22.5 24.7 16.5 69 3.7 CALM 0 0 0 0 1013.2 1013.2 0.0
23/10:30pm 22.2 24.3 16.2 69 3.6 CALM 0 0 0 0 1013.3 1013.3 0.0
23/10:00pm 23.0 24.1 16.5 67 4.0 SSE 6 7 3 4 1013.4 1013.4 0.0
23/09:30pm 23.5 24.5 16.3 64 4.4 S 6 7 3 4 1013.4 1013.4 0.0
23/09:00pm 23.9 26.4 17.2 66 4.1 CALM 0 0 0 0 1013.4 1013.4 0.0
23/08:30pm 24.3 26.8 17.3 65 4.3 CALM 0 0 0 0 1013.3 1013.3 0.0
23/08:00pm 24.7 27.1 16.9 62 4.8 CALM 0 0 0 0 1013.1 1013.1 0.0
23/07:30pm 25.0 27.4 17.0 61 5.0 CALM 0 0 0 0 1012.9 1012.9 0.0
23/07:00pm 26.7 29.2 17.2 56 5.9 CALM 0 6 0 3 1012.6 1012.6 0.0
23/06:30pm 27.6 29.8 16.6 51 6.8 CALM 0 0 0 0 1012.3 1012.3 0.0
23/06:00pm 29.6 30.6 16.4 45 8.2 SE 6 7 3 4 1012.0 1012.0 0.0
23/05:30pm 31.3 31.0 14.4 35 10.3 SE 9 9 5 5 1011.6 1011.6 0.0
23/05:00pm 32.6 32.6 14.2 32 11.2 SE 7 9 4 5 1011.4 1011.4 0.0
23/04:30pm 33.6 33.2 14.1 30 11.9 SE 9 13 5 7 1011.0 1011.0 0.0
23/04:00pm 34.2 33.0 14.1 29 12.3 SE 13 19 7 10 1010.8 1010.8 0.0
23/03:30pm 34.4 33.1 13.8 29 12.6 SE 13 19 7 10 1010.7 1010.7 0.0
23/03:00pm 34.9 34.9 13.7 28 13.0 NE 6 15 3 8 1010.6 1010.6 0.0
23/02:30pm 34.6 34.2 12.9 27 13.1 NE 7 11 4 6 1010.7 1010.7 0.0
23/02:00pm 34.8 34.2 13.6 28 12.9 E 9 15 5 8 1010.8 1010.8 0.0
23/01:30pm 35.2 34.4 12.8 26 13.5 E 9 17 5 9 1011.1 1011.1 0.0
23/01:00pm 34.6 32.5 12.3 26 13.3 SE 15 20 8 11 1011.6 1011.6 0.0
23/12:30pm 35.0 33.3 12.6 26 13.5 SE 13 24 7 13 1012.1 1012.1 0.0
23/12:00pm 34.2 31.4 11.4 25 13.4 ESE 17 24 9 13 1012.7 1012.7 0.0
23/11:30am 34.4 32.4 12.7 27 13.0 SE 15 30 8 16 1013.1 1013.1 0.0
23/11:00am 33.7 31.5 12.1 27 12.8 SE 15 24 8 13 1013.5 1013.5 0.0
23/10:30am 33.2 30.8 12.8 29 12.2 SSE 17 24 9 13 1014.0 1014.0 0.0
23/10:00am 31.8 29.2 13.1 32 11.2 SSE 19 26 10 14 1014.4 1014.4 0.0
23/09:30am 30.0 27.8 13.3 36 9.9 SSE 17 22 9 12 1014.9 1014.9 0.0
23/09:00am 27.0 25.7 13.7 44 7.9 S 13 19 7 10 1015.1 1015.1 0.0
23/08:30am 25.4 23.6 13.3 47 7.1 S 15 19 8 10 1015.1 1015.1 0.0
23/08:00am 23.8 22.5 13.6 52 5.9 SSE 13 17 7 9 1015.1 1015.1 0.0
23/07:30am 21.5 20.7 13.9 62 4.4 SSE 11 15 6 8 1014.9 1014.9 0.0
23/07:00am 19.2 18.3 13.6 70 3.2 SSE 11 13 6 7 1014.5 1014.5 0.0
23/06:30am 17.5 16.4 13.2 76 2.4 S 11 17 6 9 1014.3 1014.3 0.0
23/06:00am 17.5 17.6 13.8 79 2.1 SSE 6 7 3 4 1014.2 1014.2 0.0
23/05:30am 18.1 18.7 14.2 78 2.2 ESE 4 6 2 3 1014.0 1014.0 0.0
23/05:00am 18.2 17.9 14.5 79 2.1 ESE 9 11 5 6 1013.7 1013.7 0.0
23/04:30am 18.5 18.7 14.8 79 2.1 SE 7 9 4 5 1013.4 1013.4 0.0
23/04:00am 18.8 18.7 14.9 78 2.3 SSE 9 11 5 6 1013.1 1013.1 0.0
23/03:30am 19.0 18.6 15.1 78 2.3 SSE 11 13 6 7 1012.8 1012.8 0.0
23/03:00am 19.2 19.3 15.5 79 2.2 SSE 9 11 5 6 1012.7 1012.7 0.0
23/02:30am 19.7 19.5 15.6 77 2.4 S 11 13 6 7 1012.8 1012.8 0.0
23/02:00am 20.1 20.1 16.3 79 2.3 S 11 13 6 7 1012.8 1012.8 0.0
23/01:30am 20.2 20.0 15.8 76 2.6 S 11 13 6 7 1013.0 1013.0 0.0
23/01:00am 20.4 20.0 15.2 72 3.1 S 11 13 6 7 1013.0 1013.0 0.0
23/12:30am 20.7 20.5 14.8 69 3.5 S 9 11 5 6 1013.2 1013.2 0.0
23/12:00am 20.7 20.4 14.4 67 3.7 S 9 9 5 5 1013.3 1013.3 0.0
 
Date/Time
WST
Temp
°C
App
Temp
°C
Dew
Point
°C
Rel
Hum
%
Delta-T
°C
Wind Press
QNH
hPa
Press
MSL
hPa
Rain since
9am
mm
Dir  Spd
km/h
Gust
km/h
Spd
kts
Gust
kts
22/11:30pm 20.9 20.6 14.3 66 3.8 SSW 9 11 5 6 1013.5 1013.5 0.0
22/11:00pm 20.8 20.1 14.2 66 3.8 S 11 15 6 8 1013.6 1013.6 0.0
22/10:30pm 20.7 19.9 12.9 61 4.4 SSE 9 9 5 5 1013.5 1013.5 0.0
22/10:00pm 21.2 20.9 12.6 58 4.9 S 6 7 3 4 1013.6 1013.6 0.0
22/09:30pm 22.5 22.8 14.9 62 4.5 SE 7 9 4 5 1013.5 1013.5 0.0
22/09:00pm 22.8 24.4 14.9 61 4.7 CALM 0 0 0 0 1013.7 1013.7 0.0
22/08:30pm 23.0 24.6 14.8 60 4.9 CALM 0 0 0 0 1013.7 1013.7 0.0
22/08:00pm 23.3 24.9 14.8 59 5.0 CALM 0 0 0 0 1013.5 1013.5 0.0
22/07:30pm 24.0 24.0 13.5 52 6.1 SE 6 7 3 4 1013.3 1013.3 0.0
22/07:00pm 25.5 25.1 14.0 49 6.8 SSE 9 11 5 6 1013.0 1013.0 0.0
22/06:30pm 26.9 26.0 13.6 44 7.9 SSE 11 11 6 6 1012.7 1012.7 0.0
22/06:00pm 27.7 26.5 12.9 40 8.7 S 11 13 6 7 1012.5 1012.5 0.0
22/05:30pm 28.9 27.7 12.8 37 9.5 S 11 13 6 7 1012.1 1012.1 0.0
22/05:00pm 30.6 28.5 12.5 33 10.7 S 15 19 8 10 1011.7 1011.7 0.0
22/04:30pm 31.7 29.6 12.5 31 11.4 S 15 20 8 11 1011.5 1011.5 0.0
22/04:00pm 32.1 30.7 12.3 29 11.7 SE 11 17 6 9 1011.3 1011.3 0.0
22/03:30pm 32.6 31.0 12.8 30 11.8 SE 13 28 7 15 1011.4 1011.4 0.0
22/03:00pm 33.0 31.0 12.6 29 12.2 S 15 20 8 11 1011.3 1011.3 0.0
22/02:30pm 32.9 31.2 12.5 29 12.1 SE 13 20 7 11 1011.4 1011.4 0.0
22/02:00pm 33.2 31.4 12.2 28 12.5 S 13 19 7 10 1011.7 1011.7 0.0
22/01:30pm 32.6 30.7 11.7 28 12.3 SSE 13 19 7 10 1012.2 1012.2 0.0
22/01:00pm 32.8 31.6 12.9 29 11.9 SE 11 19 6 10 1012.5 1012.5 0.0
22/12:30pm 32.1 30.9 12.8 30 11.5 SE 11 20 6 11 1013.0 1013.0 0.0
22/12:00pm 31.3 29.8 13.1 33 10.9 S 13 20 7 11 1013.4 1013.4 0.0
22/11:30am 31.0 29.6 13.3 34 10.6 S 13 20 7 11 1014.0 1014.0 0.0
22/11:00am 30.0 28.8 12.9 35 10.1 SSE 11 19 6 10 1014.4 1014.4 0.0
22/10:30am 28.5 27.2 13.6 40 8.9 S 13 19 7 10 1015.0 1015.0 0.0
22/10:00am 27.5 26.0 13.1 41 8.5 S 13 17 7 9 1015.4 1015.4 0.0
22/09:30am 27.3 26.3 13.3 42 8.2 SE 11 17 6 9 1015.6 1015.6 0.0
22/09:00am 26.0 25.7 13.2 45 7.5 E 7 11 4 6 1015.6 1015.6 0.0
22/08:30am 24.8 23.8 13.4 49 6.7 E 11 13 6 7 1015.5 1015.5 0.0
22/08:00am 22.8 22.9 14.4 59 4.9 E 7 11 4 6 1015.4 1015.4 0.0
22/07:30am 20.0 19.9 15.0 73 2.9 ESE 9 11 5 6 1015.1 1015.1 0.0
22/07:00am 18.4 18.4 15.1 81 1.9 SE 9 11 5 6 1014.6 1014.6 0.0
22/06:30am 16.8 16.5 14.4 86 1.4 SSE 9 11 5 6 1014.1 1014.1 0.0
22/06:00am 16.5 16.1 14.0 85 1.4 S 9 11 5 6 1013.8 1013.8 0.0
22/05:30am 16.6 16.2 13.1 80 2.0 SSW 7 7 4 4 1013.7 1013.7 0.0
22/05:00am 17.1 17.0 13.4 79 2.1 S 6 7 3 4 1013.6 1013.6 0.0
22/04:30am 17.5 17.5 14.2 81 1.9 S 7 9 4 5 1013.3 1013.3 0.0
22/04:00am 17.8 17.7 14.9 83 1.7 SSE 9 9 5 5 1012.9 1012.9 0.0
22/03:30am 18.3 18.0 15.4 83 1.7 SSE 11 13 6 7 1012.7 1012.7 0.0
22/03:00am 18.4 18.5 15.5 83 1.7 SSE 9 13 5 7 1012.4 1012.4 0.0
22/02:30am 18.1 18.1 15.2 83 1.7 SE 9 11 5 6 1012.4 1012.4 0.0
22/02:00am 18.2 18.1 14.9 81 1.9 SE 9 11 5 6 1012.2 1012.2 0.0
22/01:30am 18.5 18.1 14.0 75 2.6 SE 9 9 5 5 1012.2 1012.2 0.0
22/01:00am 19.0 18.6 14.1 73 2.8 SE 9 9 5 5 1012.1 1012.1 0.0
22/12:30am 19.0 18.1 13.8 72 3.0 SE 11 11 6 6 1012.1 1012.1 0.0
22/12:00am 19.5 19.1 14.1 71 3.1 SSE 9 11 5 6 1012.3 1012.3 0.0
 
Date/Time
WST
Temp
°C
App
Temp
°C
Dew
Point
°C
Rel
Hum
%
Delta-T
°C
Wind Press
QNH
hPa
Press
MSL
hPa
Rain since
9am
mm
Dir  Spd
km/h
Gust
km/h
Spd
kts
Gust
kts
21/11:30pm 20.1 19.2 13.6 66 3.7 S 11 15 6 8 1012.5 1012.5 0.0
21/11:00pm 20.0 18.7 12.5 62 4.2 SSE 11 13 6 7 1012.4 1012.4 0.0
21/10:30pm 20.6 19.7 12.6 60 4.5 S 9 13 5 7 1012.5 1012.5 0.0
21/10:00pm 20.7 20.5 13.6 64 4.1 SSW 7 9 4 5 1012.5 1012.5 0.0
21/09:30pm 20.4 18.6 10.8 54 5.2 SSW 11 13 6 7 1012.4 1012.4 0.0
21/09:00pm 20.1 20.9 12.6 62 4.2 CALM 0 0 0 0 1012.3 1012.3 0.0
21/08:30pm 20.4 21.3 12.9 62 4.3 CALM 0 0 0 0 1012.1 1012.1 0.0
21/08:00pm 20.8 21.6 12.5 59 4.7 CALM 0 0 0 0 1011.9 1011.9 0.0

Other Formats:

Comma delimited format used in spreadsheet applications
http://www.bom.gov.au/fwo/IDW60801/IDW60801.95205.axf

JavaScript Object Notation format (JSON) in row-major order
http://www.bom.gov.au/fwo/IDW60801/IDW60801.95205.json